地図

経路データ

SID SEASON NUMBER BASIN SUBBASIN NAME ISO_TIME NATURE LAT LON WMO_WIND WMO_PRES WMO_AGENCY TRACK_TYPE DIST2LAND LANDFALL IFLAG USA_AGENCY USA_ATCF_ID USA_LAT USA_LON USA_RECORD USA_STATUS USA_WIND USA_PRES USA_SSHS USA_R34_NE USA_R34_SE USA_R34_SW USA_R34_NW USA_R50_NE USA_R50_SE USA_R50_SW USA_R50_NW USA_R64_NE USA_R64_SE USA_R64_SW USA_R64_NW USA_POCI USA_ROCI USA_RMW USA_EYE TOKYO_LAT TOKYO_LON TOKYO_GRADE TOKYO_WIND TOKYO_PRES TOKYO_R50_DIR TOKYO_R50_LONG TOKYO_R50_SHORT TOKYO_R30_DIR TOKYO_R30_LONG TOKYO_R30_SHORT TOKYO_LAND CMA_LAT CMA_LON CMA_CAT CMA_WIND CMA_PRES HKO_LAT HKO_LON HKO_CAT HKO_WIND HKO_PRES NEWDELHI_LAT NEWDELHI_LON NEWDELHI_GRADE NEWDELHI_WIND NEWDELHI_PRES NEWDELHI_CI NEWDELHI_DP NEWDELHI_POCI REUNION_LAT REUNION_LON REUNION_TYPE REUNION_WIND REUNION_PRES REUNION_TNUM REUNION_CI REUNION_RMW REUNION_R34_NE REUNION_R34_SE REUNION_R34_SW REUNION_R34_NW REUNION_R50_NE REUNION_R50_SE REUNION_R50_SW REUNION_R50_NW REUNION_R64_NE REUNION_R64_SE REUNION_R64_SW REUNION_R64_NW BOM_LAT BOM_LON BOM_TYPE BOM_WIND BOM_PRES BOM_TNUM BOM_CI BOM_RMW BOM_R34_NE BOM_R34_SE BOM_R34_SW BOM_R34_NW BOM_R50_NE BOM_R50_SE BOM_R50_SW BOM_R50_NW BOM_R64_NE BOM_R64_SE BOM_R64_SW BOM_R64_NW BOM_ROCI BOM_POCI BOM_EYE BOM_POS_METHOD BOM_PRES_METHOD NADI_LAT NADI_LON NADI_CAT NADI_WIND NADI_PRES WELLINGTON_LAT WELLINGTON_LON WELLINGTON_WIND WELLINGTON_PRES DS824_LAT DS824_LON DS824_STAGE DS824_WIND DS824_PRES TD9636_LAT TD9636_LON TD9636_STAGE TD9636_WIND TD9636_PRES TD9635_LAT TD9635_LON TD9635_WIND TD9635_PRES TD9635_ROCI NEUMANN_LAT NEUMANN_LON NEUMANN_CLASS NEUMANN_WIND NEUMANN_PRES MLC_LAT MLC_LON MLC_CLASS MLC_WIND MLC_PRES USA_GUST BOM_GUST BOM_GUST_PER REUNION_GUST REUNION_GUST_PER USA_SEAHGT USA_SEARAD_NE USA_SEARAD_SE USA_SEARAD_SW USA_SEARAD_NW STORM_SPEED STORM_DIR
1990191N10266 1990 47 EP MM GENEVIEVE 1990-07-10 00:00:00 TS 10.2000 -94.5000 25 1009 hurdat_epa main 535 535 O_____________ hurdat_epa EP081990 10.2000 -94.5000 TD 25 1009 -1 5 254
1990191N10266 1990 47 EP MM GENEVIEVE 1990-07-10 03:00:00 TS 10.1299 -94.7427 main 557 557 P_____________ EP081990 10.1299 -94.7427 TD 25 1009 -1 6 270
1990191N10266 1990 47 EP MM GENEVIEVE 1990-07-10 06:00:00 TS 10.2000 -95.1000 25 1009 hurdat_epa main 573 572 O_____________ hurdat_epa EP081990 10.2000 -95.1000 TD 25 1009 -1 10 292
1990191N10266 1990 47 EP MM GENEVIEVE 1990-07-10 09:00:00 TS 10.4976 -95.6474 main 580 527 P_____________ EP081990 10.4976 -95.6474 TD 25 1009 -1 14 301
1990191N10266 1990 47 EP MM GENEVIEVE 1990-07-10 12:00:00 TS 10.9000 -96.3000 25 1009 hurdat_epa main 527 493 O_____________ hurdat_epa EP081990 10.9000 -96.3000 TD 25 1009 -1 15 300
1990191N10266 1990 47 EP MM GENEVIEVE 1990-07-10 15:00:00 TS 11.2425 -96.9502 main 494 458 P_____________ EP081990 11.2425 -96.9502 TD 25 1009 -1 15 299
1990191N10266 1990 47 EP MM GENEVIEVE 1990-07-10 18:00:00 TS 11.6000 -97.6000 25 1009 hurdat_epa main 460 438 O_____________ hurdat_epa EP081990 11.6000 -97.6000 TD 25 1009 -1 15 302
1990191N10266 1990 47 EP MM GENEVIEVE 1990-07-10 21:00:00 TS 12.0149 -98.2224 main 438 414 P_____________ EP081990 12.0149 -98.2224 TD 25 1008 -1 14 304
1990191N10266 1990 47 EP MM GENEVIEVE 1990-07-11 00:00:00 TS 12.4000 -98.8000 25 1008 hurdat_epa main 417 403 O_____________ hurdat_epa EP081990 12.4000 -98.8000 TD 25 1008 -1 12 302
1990191N10266 1990 47 EP MM GENEVIEVE 1990-07-11 03:00:00 TS 12.6722 -99.3003 main 403 398 P_____________ EP081990 12.6722 -99.3003 TD 27 1007 -1 11 297
1990191N10266 1990 47 EP MM GENEVIEVE 1990-07-11 06:00:00 TS 12.9000 -99.8000 30 1007 hurdat_epa main 401 392 O_____________ hurdat_epa EP081990 12.9000 -99.8000 TD 30 1007 -1 12 295
1990191N10266 1990 47 EP MM GENEVIEVE 1990-07-11 09:00:00 TS 13.1575 -100.385 main 397 391 P_____________ EP081990 13.1575 -100.385 TD 30 1007 -1 13 293
1990191N10266 1990 47 EP MM GENEVIEVE 1990-07-11 12:00:00 TS 13.4000 -101.000 30 1007 hurdat_epa main 394 392 O_____________ hurdat_epa EP081990 13.4000 -101.000 TD 30 1007 -1 13 291
1990191N10266 1990 47 EP MM GENEVIEVE 1990-07-11 15:00:00 TS 13.6073 -101.593 main 402 398 P_____________ EP081990 13.6073 -101.593 TD 32 1006 -1 12 289
1990191N10266 1990 47 EP MM GENEVIEVE 1990-07-11 18:00:00 TS 13.8000 -102.200 35 1005 hurdat_epa main 409 405 O_____________ hurdat_epa EP081990 13.8000 -102.200 TS 35 1005 0 13 287
1990191N10266 1990 47 EP MM GENEVIEVE 1990-07-11 21:00:00 TS 13.9924 -102.850 main 416 416 P_____________ EP081990 13.9924 -102.850 TS 37 1004 0 13 288
1990191N10266 1990 47 EP MM GENEVIEVE 1990-07-12 00:00:00 TS 14.2000 -103.500 40 1003 hurdat_epa main 431 426 O_____________ hurdat_epa EP081990 14.2000 -103.500 TS 40 1003 0 13 290
1990191N10266 1990 47 EP MM GENEVIEVE 1990-07-12 03:00:00 TS 14.4272 -104.100 main 433 419 P_____________ EP081990 14.4272 -104.100 TS 42 1001 0 13 293
1990191N10266 1990 47 EP MM GENEVIEVE 1990-07-12 06:00:00 TS 14.7000 -104.700 45 1000 hurdat_epa main 422 411 O_____________ hurdat_epa EP081990 14.7000 -104.700 TS 45 1000 0 14 297
1990191N10266 1990 47 EP MM GENEVIEVE 1990-07-12 09:00:00 TS 15.0349 -105.350 main 421 411 P_____________ EP081990 15.0349 -105.350 TS 47 998 0 14 299
1990191N10266 1990 47 EP MM GENEVIEVE 1990-07-12 12:00:00 TS 15.4000 -106.000 50 997 hurdat_epa main 419 418 O_____________ hurdat_epa EP081990 15.4000 -106.000 TS 50 997 0 14 300
1990191N10266 1990 47 EP MM GENEVIEVE 1990-07-12 15:00:00 TS 15.7423 -106.615 main 435 423 P_____________ EP081990 15.7423 -106.615 TS 52 995 0 14 301
1990191N10266 1990 47 EP MM GENEVIEVE 1990-07-12 18:00:00 TS 16.1000 -107.200 55 994 hurdat_epa main 430 427 O_____________ hurdat_epa EP081990 16.1000 -107.200 TS 55 994 0 13 304
1990191N10266 1990 47 EP MM GENEVIEVE 1990-07-12 21:00:00 TS 16.4924 -107.765 main 438 438 P_____________ EP081990 16.4924 -107.765 TS 60 990 0 13 307
1990191N10266 1990 47 EP MM GENEVIEVE 1990-07-13 00:00:00 TS 16.9000 -108.300 65 987 hurdat_epa main 445 445 O_____________ hurdat_epa EP081990 16.9000 -108.300 HU 65 987 1 13 310
1990191N10266 1990 47 EP MM GENEVIEVE 1990-07-13 03:00:00 TS 17.3223 -108.808 main 456 456 P_____________ EP081990 17.3223 -108.808 HU 67 985 1 12 310
1990191N10266 1990 47 EP MM GENEVIEVE 1990-07-13 06:00:00 TS 17.7000 -109.300 70 984 hurdat_epa main 475 475 O_____________ hurdat_epa EP081990 17.7000 -109.300 HU 70 984 1 12 305
1990191N10266 1990 47 EP MM GENEVIEVE 1990-07-13 09:00:00 TS 17.9799 -109.800 main 504 504 P_____________ EP081990 17.9799 -109.800 HU 72 982 1 11 298
1990191N10266 1990 47 EP MM GENEVIEVE 1990-07-13 12:00:00 TS 18.2000 -110.300 75 980 hurdat_epa main 526 508 O_____________ hurdat_epa EP081990 18.2000 -110.300 HU 75 980 1 11 294
1990191N10266 1990 47 EP MM GENEVIEVE 1990-07-13 15:00:00 TS 18.4149 -110.808 main 510 496 P_____________ EP081990 18.4149 -110.808 HU 77 978 1 10 293
1990191N10266 1990 47 EP MM GENEVIEVE 1990-07-13 18:00:00 TS 18.6000 -111.300 80 977 hurdat_epa main 499 491 O_____________ hurdat_epa EP081990 18.6000 -111.300 HU 80 977 1 10 292
1990191N10266 1990 47 EP MM GENEVIEVE 1990-07-13 21:00:00 TS 18.7723 -111.758 main 495 493 P_____________ EP081990 18.7723 -111.758 HU 80 977 1 9 289
1990191N10266 1990 47 EP MM GENEVIEVE 1990-07-14 00:00:00 TS 18.9000 -112.200 80 977 hurdat_epa main 502 502 O_____________ hurdat_epa EP081990 18.9000 -112.200 HU 80 977 1 9 282
1990191N10266 1990 47 EP MM GENEVIEVE 1990-07-14 03:00:00 TS 18.9574 -112.658 main 518 518 P_____________ EP081990 18.9574 -112.658 HU 80 977 1 9 277
1990191N10266 1990 47 EP MM GENEVIEVE 1990-07-14 06:00:00 TS 19.0000 -113.100 80 977 hurdat_epa main 541 541 O_____________ hurdat_epa EP081990 19.0000 -113.100 HU 80 977 1 8 280
1990191N10266 1990 47 EP MM GENEVIEVE 1990-07-14 09:00:00 TS 19.0923 -113.500 main 558 558 P_____________ EP081990 19.0923 -113.500 HU 80 977 1 8 285
1990191N10266 1990 47 EP MM GENEVIEVE 1990-07-14 12:00:00 TS 19.2000 -113.900 80 977 hurdat_epa main 578 578 O_____________ hurdat_epa EP081990 19.2000 -113.900 HU 80 977 1 8 284
1990191N10266 1990 47 EP MM GENEVIEVE 1990-07-14 15:00:00 TS 19.2925 -114.358 main 608 608 P_____________ EP081990 19.2925 -114.358 HU 80 977 1 9 283
1990191N10266 1990 47 EP MM GENEVIEVE 1990-07-14 18:00:00 TS 19.4000 -114.800 80 977 hurdat_epa main 633 633 O_____________ hurdat_epa EP081990 19.4000 -114.800 HU 80 977 1 8 288
1990191N10266 1990 47 EP MM GENEVIEVE 1990-07-14 21:00:00 TS 19.5423 -115.158 main 659 650 P_____________ EP081990 19.5423 -115.158 HU 82 975 1 7 294
1990191N10266 1990 47 EP MM GENEVIEVE 1990-07-15 00:00:00 TS 19.7000 -115.500 85 974 hurdat_epa main 658 655 O_____________ hurdat_epa EP081990 19.7000 -115.500 HU 85 974 2 8 294
1990191N10266 1990 47 EP MM GENEVIEVE 1990-07-15 03:00:00 TS 19.8575 -115.900 main 663 663 P_____________ EP081990 19.8575 -115.900 HU 85 973 2 8 292
1990191N10266 1990 47 EP MM GENEVIEVE 1990-07-15 06:00:00 TS 20.0000 -116.300 85 973 hurdat_epa main 679 679 O_____________ hurdat_epa EP081990 20.0000 -116.300 HU 85 973 2 7 289
1990191N10266 1990 47 EP MM GENEVIEVE 1990-07-15 09:00:00 TS 20.0998 -116.650 main 698 697 P_____________ EP081990 20.0998 -116.650 HU 87 971 2 7 287
1990191N10266 1990 47 EP MM GENEVIEVE 1990-07-15 12:00:00 TS 20.2000 -117.000 90 970 hurdat_epa main 711 711 O_____________ hurdat_epa EP081990 20.2000 -117.000 HU 90 970 2 7 288
1990191N10266 1990 47 EP MM GENEVIEVE 1990-07-15 15:00:00 TS 20.3275 -117.400 main 733 733 P_____________ EP081990 20.3275 -117.400 HU 87 971 2 8 292
1990191N10266 1990 47 EP MM GENEVIEVE 1990-07-15 18:00:00 TS 20.5000 -117.800 85 973 hurdat_epa main 748 748 O_____________ hurdat_epa EP081990 20.5000 -117.800 HU 85 973 2 8 300
1990191N10266 1990 47 EP MM GENEVIEVE 1990-07-15 21:00:00 TS 20.7349 -118.158 main 766 760 P_____________ EP081990 20.7349 -118.158 HU 85 973 2 8 307
1990191N10266 1990 47 EP MM GENEVIEVE 1990-07-16 00:00:00 TS 21.0000 -118.500 85 974 hurdat_epa main 772 772 O_____________ hurdat_epa EP081990 21.0000 -118.500 HU 85 974 2 8 309
1990191N10266 1990 47 EP MM GENEVIEVE 1990-07-16 03:00:00 TS 21.2499 -118.850 main 794 788 P_____________ EP081990 21.2499 -118.850 HU 80 977 1 8 307
1990191N10266 1990 47 EP MM GENEVIEVE 1990-07-16 06:00:00 TS 21.5000 -119.200 75 980 hurdat_epa main 800 795 O_____________ hurdat_epa EP081990 21.5000 -119.200 HU 75 980 1 8 307
1990191N10266 1990 47 EP MM GENEVIEVE 1990-07-16 09:00:00 TS 21.7499 -119.550 main 808 796 P_____________ EP081990 21.7499 -119.550 HU 72 982 1 8 308
1990191N10266 1990 47 EP MM GENEVIEVE 1990-07-16 12:00:00 TS 22.0000 -119.900 70 984 hurdat_epa main 803 800 O_____________ hurdat_epa EP081990 22.0000 -119.900 HU 70 984 1 8 307
1990191N10266 1990 47 EP MM GENEVIEVE 1990-07-16 15:00:00 TS 22.2424 -120.250 main 813 802 P_____________ EP081990 22.2424 -120.250 HU 67 985 1 8 308
1990191N10266 1990 47 EP MM GENEVIEVE 1990-07-16 18:00:00 TS 22.5000 -120.600 65 987 hurdat_epa main 809 806 O_____________ hurdat_epa EP081990 22.5000 -120.600 HU 65 987 1 9 310
1990191N10266 1990 47 EP MM GENEVIEVE 1990-07-16 21:00:00 TS 22.7850 -120.958 main 814 806 P_____________ EP081990 22.7850 -120.958 HU 60 990 0 9 313
1990191N10266 1990 47 EP MM GENEVIEVE 1990-07-17 00:00:00 TS 23.1000 -121.300 55 994 hurdat_epa main 814 809 O_____________ hurdat_epa EP081990 23.1000 -121.300 TS 55 994 0 9 318
1990191N10266 1990 47 EP MM GENEVIEVE 1990-07-17 03:00:00 TS 23.4424 -121.608 main 817 810 P_____________ EP081990 23.4424 -121.608 TS 50 997 0 9 322
1990191N10266 1990 47 EP MM GENEVIEVE 1990-07-17 06:00:00 TS 23.8000 -121.900 45 1000 hurdat_epa main 816 812 O_____________ hurdat_epa EP081990 23.8000 -121.900 TS 45 1000 0 9 322
1990191N10266 1990 47 EP MM GENEVIEVE 1990-07-17 09:00:00 TS 24.1575 -122.222 main 818 818 P_____________ EP081990 24.1575 -122.222 TS 42 1001 0 9 322
1990191N10266 1990 47 EP MM GENEVIEVE 1990-07-17 12:00:00 TS 24.5000 -122.500 40 1003 hurdat_epa main 829 823 O_____________ hurdat_epa EP081990 24.5000 -122.500 TS 40 1003 0 8 328
1990191N10266 1990 47 EP MM GENEVIEVE 1990-07-17 15:00:00 TS 24.8224 -122.673 main 832 823 P_____________ EP081990 24.8224 -122.673 TS 37 1004 0 7 336
1990191N10266 1990 47 EP MM GENEVIEVE 1990-07-17 18:00:00 TS 25.1000 -122.800 35 1005 hurdat_epa main 828 824 O_____________ hurdat_epa EP081990 25.1000 -122.800 TS 35 1005 0 6 333
1990191N10266 1990 47 EP MM GENEVIEVE 1990-07-17 21:00:00 TS 25.3150 -122.950 main 839 835 P_____________ EP081990 25.3150 -122.950 TS 32 1007 -1 5 326
1990191N10266 1990 47 EP MM GENEVIEVE 1990-07-18 00:00:00 TS 25.5000 -123.100 30 1009 hurdat_epa main 841 837 O_____________ hurdat_epa EP081990 25.5000 -123.100 TD 30 1009 -1 5 325
1990191N10266 1990 47 EP MM GENEVIEVE 1990-07-18 03:00:00 TS 25.7000 -123.250 main 853 850 P_____________ EP081990 25.7000 -123.250 TD 27 1009 -1 5 326
1990191N10266 1990 47 EP MM GENEVIEVE 1990-07-18 06:00:00 TS 25.9000 -123.400 25 1010 hurdat_epa main 856 853 O_____________ hurdat_epa EP081990 25.9000 -123.400 TD 25 1010 -1 5 326
1990191N10266 1990 47 EP MM GENEVIEVE 1990-07-18 09:00:00 TS 26.1000 -123.550 main 860 860 P_____________ EP081990 26.1000 -123.550 TD 25 1010 -1 5 326
1990191N10266 1990 47 EP MM GENEVIEVE 1990-07-18 12:00:00 TS 26.3000 -123.700 25 1010 hurdat_epa main 871 O_____________ hurdat_epa EP081990 26.3000 -123.700 TD 25 1010 -1 5 325

IBTrACS Databaseについて

本データベースは、米国NOAAが公開する1842年以降の世界の熱帯低気圧のベストトラックデータアーカイブInternational Best Track Archive for Climate Stewardship (IBTrACS)を、ウェブで閲覧しやすい形式に変換したものです。

最終更新日:2021-12-06